Time;durP1;ratioP1;P1;durP2;ratioP2;P2;SDS_P1;SDS_P2;PMS_P1;PMS_P2;Temp;Humidity;BMP_temperature;BMP_pressure;BME280_temperature;BME280_humidity;BME280_pressure;Samples;Min_cycle;Max_cycle;Signal;HPM_P1;HPM_P2
2023/08/10 00:02:05;;;;;;;18.98;3.58;;;14.10;99.90;;;;;;5049095;28;259164;-70
2023/08/10 00:04:32;;;;;;;15.40;3.17;;;14.10;99.90;;;;;;5073359;28;20056;-70
2023/08/10 00:06:58;;;;;;;10.80;3.00;;;14.10;99.90;;;;;;5049932;28;269328;-69
2023/08/10 00:09:24;;;;;;;13.85;3.00;;;14.10;99.90;;;;;;5075550;28;20542;-69
2023/08/10 00:11:51;;;;;;;13.43;3.10;;;14.00;99.90;;;;;;5048853;28;263858;-69
2023/08/10 00:14:17;;;;;;;15.25;3.50;;;14.00;99.90;;;;;;5064453;28;20139;-70
2023/08/10 00:16:43;;;;;;;16.42;3.42;;;14.00;99.90;;;;;;5047490;28;277471;-70
2023/08/10 00:19:09;;;;;;;11.20;2.97;;;13.90;99.90;;;;;;5075495;28;20059;-69
2023/08/10 00:21:35;;;;;;;15.32;3.50;;;13.80;99.90;;;;;;5061004;28;273327;-68
2023/08/10 00:24:01;;;;;;;12.70;3.45;;;13.80;99.90;;;;;;5081311;28;20056;-69
2023/08/10 00:26:28;;;;;;;9.57;3.13;;;13.80;99.90;;;;;;5066043;28;20071;-69
2023/08/10 00:28:54;;;;;;;14.68;3.10;;;13.70;99.90;;;;;;5064643;28;268406;-70
2023/08/10 00:31:20;;;;;;;15.23;3.92;;;13.70;99.90;;;;;;5069270;28;20529;-69
2023/08/10 00:33:46;;;;;;;12.77;3.40;;;13.70;99.90;;;;;;5057850;28;245286;-70
2023/08/10 00:36:12;;;;;;;13.20;3.40;;;13.70;99.90;;;;;;5065044;28;20071;-69
2023/08/10 00:38:40;;;;;;;14.20;3.53;;;13.60;99.90;;;;;;5065803;28;275270;-70
2023/08/10 00:41:07;;;;;;;11.15;3.42;;;13.60;99.90;;;;;;5074683;28;20044;-69
2023/08/10 00:43:34;;;;;;;14.80;3.47;;;13.60;99.90;;;;;;5058720;28;262988;-70
2023/08/10 00:46:00;;;;;;;12.05;3.38;;;13.60;99.90;;;;;;5064129;28;20048;-70
2023/08/10 00:48:26;;;;;;;14.85;3.55;;;13.50;99.90;;;;;;5047833;28;260831;-70
2023/08/10 00:50:53;;;;;;;11.38;3.22;;;13.50;99.90;;;;;;5071276;28;20053;-69
2023/08/10 00:53:21;;;;;;;10.85;3.25;;;13.50;99.90;;;;;;5039597;28;267819;-69
2023/08/10 00:55:51;;;;;;;12.18;3.53;;;13.40;99.90;;;;;;5072580;28;20048;-69
2023/08/10 00:58:21;;;;;;;11.93;3.37;;;13.40;99.90;;;;;;5056246;28;256507;-70
2023/08/10 01:00:48;;;;;;;14.38;3.75;;;13.50;99.90;;;;;;5066478;28;20079;-72
2023/08/10 01:03:15;;;;;;;9.32;2.90;;;13.40;99.90;;;;;;5057251;28;259145;-70
2023/08/10 01:06:18;;;;;;;12.45;3.47;;;13.50;99.90;;;;;;5067810;28;20055;-71
2023/08/10 01:08:51;;;;;;;13.50;3.88;;;13.50;99.90;;;;;;5059834;28;275701;-70
2023/08/10 01:11:32;;;;;;;15.18;3.70;;;13.50;99.90;;;;;;5075331;28;20052;-70
2023/08/10 01:14:25;;;;;;;12.13;3.78;;;13.60;99.90;;;;;;5049372;28;99006;-70
2023/08/10 01:16:55;;;;;;;16.10;3.92;;;13.50;99.90;;;;;;5053086;28;271474;-69
2023/08/10 01:19:36;;;;;;;11.25;3.78;;;13.50;99.90;;;;;;5073130;28;20067;-70
2023/08/10 01:22:09;;;;;;;13.63;3.42;;;13.50;99.90;;;;;;5056349;28;253794;-69
2023/08/10 01:24:41;;;;;;;10.85;3.78;;;13.50;99.90;;;;;;5077912;28;20062;-71
2023/08/10 01:27:10;;;;;;;12.18;3.92;;;13.50;99.90;;;;;;5053084;28;20051;-70
2023/08/10 01:29:36;;;;;;;12.43;4.00;;;13.50;99.90;;;;;;5064103;28;20056;-69
2023/08/10 01:32:03;;;;;;;11.75;3.28;;;13.50;99.90;;;;;;5054356;28;251100;-69
2023/08/10 01:34:29;;;;;;;11.35;3.95;;;13.50;99.90;;;;;;5077772;28;20044;-69
2023/08/10 01:36:55;;;;;;;11.18;3.50;;;13.50;99.90;;;;;;5054872;28;255168;-69
2023/08/10 01:39:21;;;;;;;13.05;3.80;;;13.50;99.90;;;;;;5083608;28;20430;-69
2023/08/10 01:41:47;;;;;;;13.67;4.10;;;13.50;99.90;;;;;;5053450;28;270235;-69
2023/08/10 01:44:13;;;;;;;13.57;3.60;;;13.50;99.90;;;;;;5077059;28;20068;-69
2023/08/10 01:46:42;;;;;;;12.63;3.33;;;13.40;99.90;;;;;;5052507;28;276986;-69
2023/08/10 01:49:10;;;;;;;12.88;3.58;;;13.40;99.90;;;;;;5082021;28;20040;-69
2023/08/10 01:51:40;;;;;;;13.43;4.15;;;13.40;99.90;;;;;;5051779;28;270701;-68
2023/08/10 01:54:09;;;;;;;15.52;4.05;;;13.40;99.90;;;;;;5066504;28;20045;-68
2023/08/10 01:56:35;;;;;;;12.00;3.80;;;13.30;99.90;;;;;;5057340;28;288459;-69
2023/08/10 01:59:01;;;;;;;12.90;3.83;;;13.30;99.90;;;;;;5068251;28;20049;-69
2023/08/10 02:01:27;;;;;;;12.52;3.78;;;13.20;99.90;;;;;;5059013;28;20052;-69
2023/08/10 02:03:53;;;;;;;14.68;4.28;;;13.20;99.90;;;;;;5062192;28;271093;-68
2023/08/10 02:06:20;;;;;;;11.95;4.05;;;13.10;99.90;;;;;;5070843;28;20060;-69
2023/08/10 02:08:46;;;;;;;17.48;4.05;;;13.10;99.90;;;;;;5058752;28;259820;-70
2023/08/10 02:11:12;;;;;;;11.20;3.28;;;13.10;99.90;;;;;;5070617;28;20052;-69
2023/08/10 02:13:38;;;;;;;14.73;3.75;;;13.00;99.90;;;;;;5056535;28;268775;-70
2023/08/10 02:16:04;;;;;;;10.18;3.78;;;13.10;99.90;;;;;;5069376;28;20059;-69
2023/08/10 02:18:30;;;;;;;15.35;4.78;;;13.10;99.90;;;;;;5038716;28;212230;-69
2023/08/10 02:20:56;;;;;;;15.75;3.45;;;13.00;99.90;;;;;;5068759;28;20052;-70
2023/08/10 02:23:23;;;;;;;14.90;3.90;;;13.00;99.90;;;;;;5062376;28;258913;-70
2023/08/10 02:25:49;;;;;;;15.48;3.83;;;13.00;99.90;;;;;;5068645;28;20056;-69
2023/08/10 02:28:15;;;;;;;10.80;3.88;;;13.00;99.90;;;;;;5050975;28;99163;-69
2023/08/10 02:30:41;;;;;;;11.40;3.63;;;13.00;99.90;;;;;;5068935;28;20055;-69
2023/08/10 02:33:07;;;;;;;13.35;4.03;;;12.90;99.90;;;;;;5055571;28;268330;-69
2023/08/10 02:35:34;;;;;;;11.30;3.65;;;12.90;99.90;;;;;;5064974;28;20527;-69
2023/08/10 02:38:00;;;;;;;12.43;3.88;;;12.90;99.90;;;;;;5058795;28;257301;-69
2023/08/10 02:40:26;;;;;;;12.00;4.15;;;12.90;99.90;;;;;;5069700;28;20533;-69
2023/08/10 02:42:52;;;;;;;13.73;3.83;;;12.90;99.90;;;;;;5062518;28;261913;-69
2023/08/10 02:45:18;;;;;;;16.77;3.90;;;12.80;99.90;;;;;;5068254;28;20052;-69
2023/08/10 02:47:44;;;;;;;13.82;4.15;;;12.80;99.90;;;;;;5055250;28;79249;-69
2023/08/10 02:50:11;;;;;;;13.30;4.00;;;12.80;99.90;;;;;;5056237;28;20403;-69
2023/08/10 02:52:37;;;;;;;12.30;3.90;;;12.80;99.90;;;;;;5026395;28;260628;-69
2023/08/10 02:55:04;;;;;;;14.18;3.90;;;12.80;99.90;;;;;;5076079;28;20060;-69
2023/08/10 02:57:30;;;;;;;17.23;4.28;;;12.80;99.90;;;;;;5057002;28;70093;-69
2023/08/10 02:59:56;;;;;;;16.25;4.10;;;12.80;99.90;;;;;;5071745;28;20048;-70
2023/08/10 03:02:22;;;;;;;13.98;4.00;;;12.80;99.90;;;;;;5050839;28;178112;-71
2023/08/10 03:04:49;;;;;;;15.15;4.07;;;12.80;99.90;;;;;;5077521;28;20055;-70
2023/08/10 03:07:15;;;;;;;12.85;4.15;;;12.80;99.90;;;;;;5052029;28;262692;-69
2023/08/10 03:09:41;;;;;;;11.27;4.00;;;12.80;99.90;;;;;;5084561;28;20068;-69
2023/08/10 03:12:09;;;;;;;17.80;4.07;;;12.80;99.90;;;;;;5050266;28;99785;-70
2023/08/10 03:14:35;;;;;;;15.20;3.75;;;12.90;99.90;;;;;;5081262;28;20060;-70
2023/08/10 03:17:01;;;;;;;12.90;3.72;;;12.90;99.90;;;;;;5048196;28;251133;-70
2023/08/10 03:19:27;;;;;;;13.05;3.67;;;12.90;99.90;;;;;;5069039;28;20416;-70
2023/08/10 03:21:53;;;;;;;12.30;4.20;;;13.00;99.90;;;;;;5052005;28;274517;-69
2023/08/10 03:24:19;;;;;;;11.23;4.05;;;13.00;99.90;;;;;;5073154;28;20068;-69
2023/08/10 03:26:45;;;;;;;17.10;4.60;;;13.00;99.90;;;;;;5049069;28;254649;-69
2023/08/10 03:29:11;;;;;;;11.18;3.78;;;13.10;99.90;;;;;;5070835;28;20052;-70
2023/08/10 03:31:37;;;;;;;11.88;3.80;;;13.10;99.90;;;;;;5050379;28;266022;-70
2023/08/10 03:34:04;;;;;;;15.13;4.10;;;13.10;99.90;;;;;;5086395;28;20082;-71
2023/08/10 03:36:30;;;;;;;14.20;3.83;;;13.10;99.90;;;;;;5068281;28;20052;-70
2023/08/10 03:38:56;;;;;;;12.25;3.90;;;13.20;99.90;;;;;;5064708;28;255204;-69
2023/08/10 03:41:22;;;;;;;10.93;3.83;;;13.20;99.90;;;;;;5065926;28;20310;-68
2023/08/10 03:43:49;;;;;;;12.15;3.60;;;13.20;99.90;;;;;;5065764;28;268691;-70
2023/08/10 03:46:15;;;;;;;13.23;3.85;;;13.30;99.90;;;;;;5068458;28;20059;-70
2023/08/10 03:48:41;;;;;;;11.70;3.80;;;13.30;99.90;;;;;;5054824;28;74963;-70
2023/08/10 03:51:07;;;;;;;11.90;4.03;;;13.30;99.90;;;;;;5066366;28;20049;-69
2023/08/10 03:53:33;;;;;;;15.77;4.22;;;13.30;99.90;;;;;;5038169;28;270269;-71
2023/08/10 03:55:59;;;;;;;15.32;3.63;;;13.30;99.90;;;;;;5068377;28;20064;-70
2023/08/10 03:58:25;;;;;;;18.33;3.90;;;13.30;99.90;;;;;;5059661;28;251244;-71
2023/08/10 04:00:51;;;;;;;12.68;4.10;;;13.30;99.90;;;;;;5059045;28;20068;-72
2023/08/10 04:03:17;;;;;;;16.95;3.55;;;13.30;99.90;;;;;;5056501;28;278602;-70
2023/08/10 04:05:43;;;;;;;11.93;3.88;;;13.30;99.90;;;;;;5070667;28;20048;-68
2023/08/10 04:08:10;;;;;;;11.00;3.55;;;13.30;99.90;;;;;;5056717;28;52676;-70
2023/08/10 04:10:36;;;;;;;13.20;3.60;;;13.30;99.90;;;;;;5072194;28;20075;-69
2023/08/10 04:13:03;;;;;;;16.50;4.38;;;13.40;99.90;;;;;;5056712;28;262152;-69
2023/08/10 04:15:30;;;;;;;15.70;3.58;;;13.30;99.90;;;;;;5066054;28;20048;-69
2023/08/10 04:17:57;;;;;;;12.73;3.50;;;13.40;99.90;;;;;;5050788;28;261358;-69
2023/08/10 04:20:23;;;;;;;12.93;3.60;;;13.40;99.90;;;;;;5067852;28;20075;-69
2023/08/10 04:22:49;;;;;;;11.70;3.35;;;13.40;99.90;;;;;;5057207;28;20048;-69
2023/08/10 04:25:15;;;;;;;15.55;3.53;;;13.50;99.90;;;;;;5069120;28;20048;-69
2023/08/10 04:27:41;;;;;;;11.48;3.53;;;13.50;99.90;;;;;;5057990;28;277202;-69
2023/08/10 04:30:08;;;;;;;12.93;3.60;;;13.50;99.90;;;;;;5073957;28;20054;-69
2023/08/10 04:32:35;;;;;;;13.63;3.40;;;13.50;99.90;;;;;;5049836;28;261956;-69
2023/08/10 04:35:02;;;;;;;16.10;3.65;;;13.50;99.90;;;;;;5073400;28;20053;-68
2023/08/10 04:37:28;;;;;;;11.75;3.58;;;13.60;99.90;;;;;;5057995;28;264005;-68
2023/08/10 04:39:54;;;;;;;14.98;3.40;;;13.50;99.90;;;;;;5076752;28;20049;-69
2023/08/10 04:42:20;;;;;;;11.73;3.40;;;13.60;99.90;;;;;;5065239;28;207718;-69
2023/08/10 04:44:46;;;;;;;15.40;3.78;;;13.60;99.90;;;;;;5068358;28;20063;-71
2023/08/10 04:47:13;;;;;;;14.57;3.30;;;13.60;99.90;;;;;;5054619;28;274750;-70
2023/08/10 04:49:39;;;;;;;11.98;3.45;;;13.60;99.90;;;;;;5078168;28;20052;-70
2023/08/10 04:52:05;;;;;;;11.25;3.10;;;13.70;99.90;;;;;;5032285;28;264539;-69
2023/08/10 04:54:31;;;;;;;14.05;3.60;;;13.70;99.90;;;;;;5072456;28;20056;-69
2023/08/10 04:56:57;;;;;;;12.38;3.15;;;13.80;99.90;;;;;;5052503;28;267550;-70
2023/08/10 04:59:23;;;;;;;12.38;3.20;;;13.80;99.90;;;;;;5070783;28;20053;-69
2023/08/10 05:01:49;;;;;;;13.05;3.22;;;13.90;99.90;;;;;;5037906;28;267753;-69
2023/08/10 05:04:16;;;;;;;18.27;3.63;;;13.90;99.90;;;;;;5063036;28;20048;-69
2023/08/10 05:06:42;;;;;;;14.10;3.60;;;13.90;99.90;;;;;;5049179;28;256888;-69
2023/08/10 05:09:09;;;;;;;14.18;3.40;;;14.00;99.90;;;;;;5073804;28;20041;-70
2023/08/10 05:11:35;;;;;;;11.02;3.17;;;14.10;99.90;;;;;;5053421;28;275144;-68
2023/08/10 05:14:02;;;;;;;10.00;2.88;;;14.10;99.90;;;;;;5064649;28;20060;-68
2023/08/10 05:16:28;;;;;;;10.57;3.00;;;14.10;99.90;;;;;;5066712;28;20044;-68
2023/08/10 05:18:55;;;;;;;12.65;3.08;;;14.20;99.90;;;;;;5055466;28;276429;-68
2023/08/10 05:21:22;;;;;;;15.15;3.10;;;14.20;99.90;;;;;;5068354;28;20052;-69
2023/08/10 05:23:48;;;;;;;10.10;2.53;;;14.30;99.90;;;;;;5053898;28;71512;-69
2023/08/10 05:26:14;;;;;;;10.23;2.83;;;14.30;99.90;;;;;;5063572;28;20076;-68
2023/08/10 05:28:40;;;;;;;14.50;2.90;;;14.40;99.90;;;;;;5063793;28;270646;-68
2023/08/10 05:31:06;;;;;;;13.80;2.95;;;14.40;99.90;;;;;;5067743;28;20048;-70
2023/08/10 05:33:33;;;;;;;10.38;2.80;;;14.50;99.90;;;;;;5054561;28;77626;-71
2023/08/10 05:35:59;;;;;;;12.57;3.65;;;14.50;99.90;;;;;;5066402;28;20124;-70
2023/08/10 05:38:26;;;;;;;11.10;3.00;;;14.60;99.90;;;;;;5067612;28;269277;-70
2023/08/10 05:40:52;;;;;;;14.13;2.78;;;14.60;99.90;;;;;;5072064;28;20059;-69
2023/08/10 05:43:18;;;;;;;13.90;3.30;;;14.70;99.90;;;;;;5070495;28;259217;-69
2023/08/10 05:45:44;;;;;;;11.05;2.90;;;14.70;99.90;;;;;;5071350;28;20521;-70
2023/08/10 05:48:11;;;;;;;11.75;3.08;;;14.70;99.90;;;;;;5065588;28;254987;-69
2023/08/10 05:50:38;;;;;;;8.98;2.50;;;14.70;99.90;;;;;;5072669;28;20052;-70
2023/08/10 05:53:06;;;;;;;9.85;2.70;;;14.80;99.90;;;;;;5040842;28;283703;-69
2023/08/10 05:55:32;;;;;;;16.00;2.63;;;14.90;99.90;;;;;;5070178;28;20434;-70
2023/08/10 05:57:59;;;;;;;11.45;2.85;;;15.00;99.90;;;;;;5057216;28;268905;-70
2023/08/10 06:00:26;;;;;;;10.65;2.70;;;15.00;99.90;;;;;;5067937;28;20060;-69
2023/08/10 06:02:53;;;;;;;10.07;2.58;;;15.10;99.90;;;;;;5052826;28;254316;-70
2023/08/10 06:05:20;;;;;;;12.10;2.80;;;15.20;99.90;;;;;;5068458;28;20507;-69
2023/08/10 06:07:47;;;;;;;13.85;2.90;;;15.40;99.90;;;;;;5051315;28;261319;-69
2023/08/10 06:10:14;;;;;;;16.40;2.88;;;15.70;99.90;;;;;;5065744;28;20053;-69
2023/08/10 06:12:44;;;;;;;11.93;2.65;;;15.60;99.90;;;;;;5054233;28;263157;-69
2023/08/10 06:15:10;;;;;;;10.48;2.60;;;15.60;99.90;;;;;;5060336;28;20418;-70
2023/08/10 06:17:40;;;;;;;10.10;2.60;;;15.60;99.90;;;;;;5051075;28;260261;-69
2023/08/10 06:20:40;;;;;;;10.60;2.40;;;15.90;99.90;;;;;;5069802;28;20052;-69
2023/08/10 06:22:58;;;;;;;6.57;2.00;;;16.30;99.90;;;;;;5056867;28;251180;-70
2023/08/10 06:25:24;;;;;;;11.05;2.28;;;17.00;99.90;;;;;;5060519;28;20044;-70
2023/08/10 06:27:50;;;;;;;9.82;2.22;;;17.30;99.90;;;;;;5060775;28;259962;-70
2023/08/10 06:30:17;;;;;;;11.73;2.50;;;17.80;99.90;;;;;;5074735;28;20490;-69
2023/08/10 06:32:43;;;;;;;9.90;2.28;;;18.00;99.90;;;;;;5057798;28;265419;-70
2023/08/10 06:35:09;;;;;;;13.27;1.92;;;17.90;99.90;;;;;;5076097;28;20060;-69
2023/08/10 06:37:37;;;;;;;12.27;1.98;;;17.90;99.90;;;;;;5060965;28;271118;-69
2023/08/10 06:40:08;;;;;;;10.43;2.10;;;17.80;99.90;;;;;;5071110;28;20499;-69
2023/08/10 06:42:35;;;;;;;11.45;2.13;;;17.70;99.90;;;;;;5062843;28;76390;-69
2023/08/10 06:45:03;;;;;;;13.18;2.25;;;17.90;99.90;;;;;;5071279;28;20081;-69
2023/08/10 06:47:30;;;;;;;10.05;1.77;;;17.90;99.90;;;;;;5060457;28;254468;-70
2023/08/10 06:49:57;;;;;;;6.78;1.50;;;18.30;99.90;;;;;;5069860;28;20048;-69
2023/08/10 06:52:24;;;;;;;12.25;2.10;;;18.60;99.90;;;;;;5032667;28;266264;-69
2023/08/10 06:54:52;;;;;;;8.25;1.90;;;19.00;99.90;;;;;;5069446;28;20107;-69
2023/08/10 06:57:20;;;;;;;10.77;1.80;;;19.20;99.90;;;;;;5054010;28;260204;-70
2023/08/10 06:59:46;;;;;;;12.77;1.42;;;19.30;99.90;;;;;;5072656;28;20052;-70
2023/08/10 07:02:13;;;;;;;10.70;1.52;;;19.40;99.90;;;;;;5048927;28;32931;-69
2023/08/10 07:04:40;;;;;;;11.27;1.73;;;19.50;99.90;;;;;;5080177;28;20064;-71
2023/08/10 07:07:07;;;;;;;8.65;1.40;;;19.70;99.90;;;;;;5052395;28;267105;-69
2023/08/10 07:09:33;;;;;;;9.07;1.40;;;20.00;99.90;;;;;;5076491;28;20052;-69
2023/08/10 07:11:59;;;;;;;8.32;1.33;;;20.10;99.90;;;;;;5051832;28;264869;-69
2023/08/10 07:14:25;;;;;;;11.07;1.52;;;20.30;99.90;;;;;;5067146;28;20056;-70
2023/08/10 07:16:52;;;;;;;10.93;1.52;;;20.40;99.90;;;;;;5044890;28;272179;-68
2023/08/10 07:19:18;;;;;;;11.30;1.48;;;20.70;99.90;;;;;;5037852;28;20056;-68
2023/08/10 07:21:44;;;;;;;10.60;1.80;;;21.00;99.90;;;;;;5051492;28;269823;-68
2023/08/10 07:24:10;;;;;;;9.48;1.63;;;21.10;99.90;;;;;;5071544;28;20049;-69
2023/08/10 07:26:36;;;;;;;12.57;1.73;;;21.20;99.90;;;;;;5050428;28;274958;-69
2023/08/10 07:29:03;;;;;;;8.02;1.42;;;21.40;99.90;;;;;;5082342;28;20060;-69
2023/08/10 07:31:31;;;;;;;15.18;1.60;;;21.70;99.90;;;;;;5065389;28;20068;-69
2023/08/10 07:34:01;;;;;;;8.10;1.30;;;21.90;99.90;;;;;;5057713;28;256906;-68
2023/08/10 07:36:27;;;;;;;6.38;1.00;;;21.40;99.90;;;;;;5067524;28;20056;-68
2023/08/10 07:38:56;;;;;;;8.35;1.20;;;21.30;99.90;;;;;;5064656;28;251111;-69
2023/08/10 07:41:23;;;;;;;11.50;1.50;;;21.20;99.90;;;;;;5064180;28;20063;-68
2023/08/10 07:43:49;;;;;;;9.52;1.40;;;20.90;99.90;;;;;;5047098;28;155632;-70
2023/08/10 07:46:15;;;;;;;9.80;1.35;;;20.60;99.90;;;;;;5066785;28;20064;-68
2023/08/10 07:48:41;;;;;;;7.28;1.20;;;20.40;99.90;;;;;;5057307;28;280980;-68
2023/08/10 07:51:08;;;;;;;9.10;1.40;;;20.30;99.90;;;;;;5061155;28;20052;-69
2023/08/10 07:53:34;;;;;;;8.55;1.77;;;20.20;99.90;;;;;;5041478;28;276581;-68
2023/08/10 07:56:00;;;;;;;8.93;1.10;;;20.20;99.90;;;;;;5068605;28;20059;-68
2023/08/10 07:58:26;;;;;;;9.27;1.38;;;20.30;99.90;;;;;;5060599;28;257761;-68
2023/08/10 08:00:53;;;;;;;10.85;1.80;;;20.30;99.90;;;;;;5060746;28;20506;-70
2023/08/10 08:03:20;;;;;;;8.38;1.23;;;20.20;99.90;;;;;;5055580;28;259634;-70
2023/08/10 08:05:46;;;;;;;7.13;1.23;;;20.30;99.90;;;;;;5069971;28;20075;-69
2023/08/10 08:08:13;;;;;;;11.10;1.40;;;20.30;99.90;;;;;;5052370;28;259522;-70
2023/08/10 08:10:39;;;;;;;10.48;1.58;;;20.30;99.90;;;;;;5071072;28;20506;-70
2023/08/10 08:13:06;;;;;;;9.77;1.20;;;20.40;99.90;;;;;;5058824;28;256874;-69
2023/08/10 08:15:36;;;;;;;8.70;1.40;;;20.30;99.90;;;;;;5065732;28;20060;-70
2023/08/10 08:18:39;;;;;;;5.57;1.00;;;20.10;99.90;;;;;;5047397;28;46970;-70
2023/08/10 08:21:06;;;;;;;8.20;1.33;;;20.00;99.90;;;;;;5067744;28;20055;-69
2023/08/10 08:23:32;;;;;;;8.90;1.25;;;20.00;99.90;;;;;;5050122;28;88178;-70
2023/08/10 08:25:58;;;;;;;7.63;1.20;;;20.00;99.90;;;;;;5062527;28;20057;-70
2023/08/10 08:28:24;;;;;;;9.13;1.30;;;20.00;99.90;;;;;;5058966;28;273279;-70
2023/08/10 08:30:51;;;;;;;9.50;1.45;;;19.80;99.90;;;;;;5069033;28;20063;-70
2023/08/10 08:33:18;;;;;;;6.72;1.10;;;19.90;99.90;;;;;;5061630;28;257377;-70
2023/08/10 08:35:45;;;;;;;5.53;1.00;;;19.90;99.90;;;;;;5068230;28;20044;-70
2023/08/10 08:38:15;;;;;;;7.50;1.42;;;19.70;99.90;;;;;;5061855;28;275898;-70
2023/08/10 08:40:42;;;;;;;5.83;1.30;;;19.60;99.90;;;;;;5067080;28;20060;-69
2023/08/10 08:43:10;;;;;;;5.68;1.00;;;19.70;99.90;;;;;;5045427;28;147077;-70
2023/08/10 08:45:36;;;;;;;7.20;1.20;;;19.60;99.90;;;;;;5068972;28;20671;-69
2023/08/10 08:48:03;;;;;;;6.60;1.10;;;19.60;99.90;;;;;;5057474;28;262813;-69
2023/08/10 08:50:30;;;;;;;7.88;1.20;;;19.60;99.90;;;;;;5062756;28;20067;-69
2023/08/10 08:52:57;;;;;;;8.32;1.48;;;19.60;99.90;;;;;;5035783;28;272074;-69
2023/08/10 08:55:25;;;;;;;6.53;1.20;;;19.60;99.90;;;;;;5062538;28;20060;-69
2023/08/10 08:57:51;;;;;;;7.85;1.30;;;19.50;99.90;;;;;;5050491;28;261555;-70
2023/08/10 09:00:18;;;;;;;6.65;1.02;;;19.50;99.90;;;;;;5069605;28;20056;-69
2023/08/10 09:02:44;;;;;;;9.25;1.45;;;19.40;99.90;;;;;;5042815;28;271314;-69
2023/08/10 09:05:10;;;;;;;7.95;1.20;;;19.40;99.90;;;;;;5072287;28;20060;-69
2023/08/10 09:07:36;;;;;;;7.00;1.20;;;19.40;99.90;;;;;;5045909;28;272996;-69
2023/08/10 09:10:03;;;;;;;7.80;1.33;;;19.40;99.90;;;;;;5072852;28;20450;-70
2023/08/10 09:12:33;;;;;;;8.85;1.10;;;19.40;99.90;;;;;;5058727;28;126815;-68
2023/08/10 09:15:07;;;;;;;7.10;1.23;;;19.30;99.90;;;;;;5077649;28;20051;-68
2023/08/10 09:17:34;;;;;;;10.85;1.50;;;19.20;99.90;;;;;;5048433;28;258518;-68
2023/08/10 09:20:02;;;;;;;10.63;1.50;;;19.10;99.90;;;;;;5079139;28;20553;-69
2023/08/10 09:22:36;;;;;;;7.10;1.50;;;19.00;99.90;;;;;;5059876;28;262290;-70
2023/08/10 09:25:04;;;;;;;8.32;1.20;;;19.10;99.90;;;;;;5074338;28;20053;-69
2023/08/10 09:27:31;;;;;;;7.75;1.20;;;19.10;99.90;;;;;;5056633;28;98739;-68
2023/08/10 09:29:59;;;;;;;10.02;1.20;;;19.10;99.90;;;;;;5050752;28;20128;-69
2023/08/10 09:32:26;;;;;;;6.03;1.20;;;19.10;99.90;;;;;;5044181;28;276094;-69
2023/08/10 09:34:52;;;;;;;9.38;1.20;;;19.20;99.90;;;;;;5077335;28;20054;-69
2023/08/10 09:37:20;;;;;;;10.07;1.30;;;19.20;99.90;;;;;;5058388;28;265100;-70
2023/08/10 09:39:46;;;;;;;7.65;1.20;;;19.20;99.90;;;;;;5080928;28;20507;-69
2023/08/10 09:42:13;;;;;;;7.93;1.30;;;19.20;99.90;;;;;;5051818;28;264270;-69
2023/08/10 09:44:58;;;;;;;7.15;1.27;;;19.10;99.90;;;;;;5079408;28;20056;-69
2023/08/10 09:47:24;;;;;;;10.50;1.33;;;19.20;99.90;;;;;;5055625;28;265334;-68
2023/08/10 09:49:57;;;;;;;9.48;1.85;;;18.90;99.90;;;;;;5073165;28;20127;-70
2023/08/10 09:52:25;;;;;;;9.85;1.52;;;18.90;99.90;;;;;;5040455;28;275565;-69
2023/08/10 09:54:53;;;;;;;10.50;2.20;;;18.90;99.90;;;;;;5073371;28;20540;-69
2023/08/10 09:57:20;;;;;;;10.88;1.52;;;19.10;99.90;;;;;;5046770;28;265054;-69
2023/08/10 09:59:47;;;;;;;6.75;1.17;;;19.10;99.90;;;;;;5074168;28;20065;-69
2023/08/10 10:02:15;;;;;;;8.90;1.30;;;19.10;99.90;;;;;;5049917;28;275913;-68
2023/08/10 10:04:42;;;;;;;7.05;1.27;;;19.10;99.90;;;;;;5076848;28;20056;-68
2023/08/10 10:07:11;;;;;;;7.57;1.25;;;19.20;99.90;;;;;;5050902;28;271779;-69
2023/08/10 10:09:38;;;;;;;9.85;1.30;;;19.30;99.90;;;;;;5076158;28;20040;-69
2023/08/10 10:12:10;;;;;;;11.65;1.40;;;19.40;99.90;;;;;;5054738;28;269468;-69
2023/08/10 10:14:44;;;;;;;6.85;1.27;;;19.50;99.90;;;;;;5071251;28;20056;-69
2023/08/10 10:17:18;;;;;;;11.02;1.42;;;19.50;99.90;;;;;;5052588;28;261124;-70
2023/08/10 10:19:45;;;;;;;8.18;1.50;;;19.50;99.90;;;;;;5069770;28;20059;-69
2023/08/10 10:22:11;;;;;;;8.68;1.20;;;19.50;99.90;;;;;;5048209;28;78678;-69
2023/08/10 10:24:42;;;;;;;10.23;1.40;;;19.50;99.90;;;;;;5063233;28;20052;-70
2023/08/10 10:27:10;;;;;;;7.50;1.40;;;19.50;99.90;;;;;;5055547;28;248677;-69
2023/08/10 10:29:48;;;;;;;8.45;1.63;;;19.50;99.90;;;;;;5079104;28;20066;-70
2023/08/10 10:32:18;;;;;;;9.90;1.48;;;19.50;99.90;;;;;;5053272;28;274485;-69
2023/08/10 10:34:45;;;;;;;8.40;1.60;;;19.40;99.90;;;;;;5060569;28;20651;-69
2023/08/10 10:37:21;;;;;;;8.57;1.50;;;19.40;99.90;;;;;;5056720;28;251645;-70
2023/08/10 10:39:51;;;;;;;10.35;1.73;;;19.50;99.90;;;;;;5080083;28;20045;-69
2023/08/10 10:42:19;;;;;;;7.72;1.50;;;19.50;99.90;;;;;;5048229;28;275519;-69
2023/08/10 10:45:03;;;;;;;7.78;1.60;;;19.40;99.90;;;;;;5069188;28;20052;-70
2023/08/10 10:47:39;;;;;;;10.60;1.50;;;19.40;99.90;;;;;;5052651;28;275321;-69
2023/08/10 10:50:27;;;;;;;10.63;1.60;;;19.40;99.90;;;;;;5066690;28;20055;-69
2023/08/10 10:53:12;;;;;;;8.25;1.60;;;19.30;99.90;;;;;;5038547;28;254227;-70
2023/08/10 10:55:43;;;;;;;11.10;1.60;;;19.30;99.90;;;;;;5064172;28;20052;-70
2023/08/10 10:58:13;;;;;;;;;;;19.30;99.90;;;;;;5057340;28;265558;-69
2023/08/10 11:00:41;;;;;;;11.23;1.92;;;19.30;99.90;;;;;;5064894;28;19927;-69
2023/08/10 11:03:09;;;;;;;9.43;1.75;;;19.30;99.90;;;;;;5058255;28;280167;-69
2023/08/10 11:05:36;;;;;;;9.80;1.65;;;19.30;99.90;;;;;;5073266;28;20060;-70
2023/08/10 11:08:05;;;;;;;10.70;1.75;;;19.20;99.90;;;;;;5054308;28;275905;-68
2023/08/10 11:10:35;;;;;;;8.50;1.52;;;19.20;99.90;;;;;;5067504;28;20047;-68
2023/08/10 11:13:06;;;;;;;9.40;1.67;;;19.30;99.90;;;;;;5059345;28;276672;-69
2023/08/10 11:15:34;;;;;;;9.27;1.88;;;19.40;99.90;;;;;;5072094;28;20040;-69
2023/08/10 11:18:03;;;;;;;9.40;2.05;;;19.50;99.90;;;;;;5047614;28;263150;-68
2023/08/10 11:20:29;;;;;;;9.18;1.90;;;19.30;99.90;;;;;;5065697;28;20059;-69
2023/08/10 11:22:55;;;;;;;9.77;1.83;;;19.30;99.90;;;;;;5060904;28;254123;-69
2023/08/10 11:25:31;;;;;;;9.68;1.83;;;19.30;99.90;;;;;;5064966;28;20392;-69
2023/08/10 11:27:57;;;;;;;10.70;2.58;;;19.30;99.90;;;;;;5059178;28;259674;-68
2023/08/10 11:30:24;;;;;;;10.15;1.90;;;19.40;99.90;;;;;;5073500;28;20052;-69
2023/08/10 11:32:52;;;;;;;8.43;1.60;;;19.20;99.90;;;;;;5057260;28;265704;-68
2023/08/10 11:35:20;;;;;;;12.30;1.95;;;19.30;99.90;;;;;;5068335;28;20056;-69
2023/08/10 11:37:48;;;;;;;9.40;1.85;;;19.40;99.90;;;;;;5059479;28;261499;-69
2023/08/10 11:40:20;;;;;;;10.75;2.00;;;19.50;99.90;;;;;;5068968;28;20056;-69
2023/08/10 11:42:48;;;;;;;11.38;1.85;;;19.70;99.90;;;;;;5052361;28;259365;-68
2023/08/10 11:45:23;;;;;;;7.28;1.80;;;19.80;99.90;;;;;;5053659;28;20061;-69
2023/08/10 11:47:52;;;;;;;9.40;1.80;;;19.90;99.90;;;;;;5053585;28;209949;-70
2023/08/10 11:50:21;;;;;;;9.45;1.90;;;19.90;99.90;;;;;;5071075;28;20045;-70
2023/08/10 11:52:55;;;;;;;8.95;2.08;;;20.00;99.90;;;;;;5038428;28;275263;-67
2023/08/10 11:55:21;;;;;;;12.13;2.28;;;20.10;99.90;;;;;;5065322;28;20052;-70
2023/08/10 11:57:52;;;;;;;10.52;2.10;;;20.30;99.90;;;;;;5058624;28;256582;-69
2023/08/10 12:00:22;;;;;;;;;;;20.40;99.90;;;;;;5068620;28;20048;-69
2023/08/10 12:03:07;;;;;;;10.07;2.20;;;20.60;99.90;;;;;;5051331;28;259367;-70
2023/08/10 12:05:43;;;;;;;9.60;1.85;;;20.80;99.90;;;;;;5065423;28;20636;-69
2023/08/10 12:08:12;;;;;;;9.40;1.83;;;21.10;99.90;;;;;;5053282;28;261149;-69
2023/08/10 12:10:41;;;;;;;10.23;2.10;;;21.40;99.90;;;;;;5065004;28;20055;-69
2023/08/10 12:13:10;;;;;;;10.00;2.22;;;21.90;99.90;;;;;;5055941;28;257035;-69
2023/08/10 12:15:47;;;;;;;11.90;2.47;;;22.30;99.90;;;;;;5064762;28;20052;-70
2023/08/10 12:18:18;;;;;;;10.55;2.00;;;22.60;99.90;;;;;;5028370;28;205294;-69
2023/08/10 12:20:45;;;;;;;11.20;1.83;;;22.50;99.90;;;;;;5065948;28;20056;-68
2023/08/10 12:23:12;;;;;;;9.90;2.22;;;22.40;99.90;;;;;;5070679;28;216631;-68
2023/08/10 12:25:38;;;;;;;10.60;2.30;;;22.20;99.90;;;;;;5065868;28;20060;-69
2023/08/10 12:28:06;;;;;;;9.35;2.45;;;22.00;99.90;;;;;;5060350;28;20047;-70
2023/08/10 12:30:35;;;;;;;7.95;1.80;;;21.70;99.90;;;;;;5068802;28;20048;-69
2023/08/10 12:33:02;;;;;;;11.02;2.15;;;21.70;99.90;;;;;;5060042;28;270495;-70
2023/08/10 12:35:29;;;;;;;8.18;2.30;;;21.70;99.90;;;;;;5071102;28;20040;-69
2023/08/10 12:37:55;;;;;;;12.63;3.80;;;21.90;99.90;;;;;;5059429;28;262116;-70
2023/08/10 12:40:21;;;;;;;9.90;2.33;;;22.00;99.90;;;;;;5064855;28;20055;-70